Overview Statistics Trail Chart Weather Telemetry Raw packets
 

This is the latest recevied weather packets stored in our database for station/object TONGUE. If no packets are shown the sender has not sent any weather packets the latest 10 day(s).

<< 12 13 14 15 16 17 18 >>
Time Temp. Humidity Pressure Rain* Wind** Luminosity Snow
1788312603 18.33° C 74% 0 hPa - - - -
1788312002 18.33° C 75% 0 hPa - - - -
1788311403 18.33° C 76% 0 hPa - - - -
1788310803 18.33° C 75% 0 hPa - - - -
1788310203 18.33° C 75% 0 hPa - - - -
1788309603 18.33° C 75% 0 hPa - - - -
1788309002 18.33° C 75% 0 hPa - - - -
1788308402 18.89° C 74% 0 hPa - - - -
1788307802 18.89° C 73% 0 hPa - - - -
1788307204 18.89° C 71% 0 hPa - - - -
1788306603 19.44° C 67% 0 hPa - - - -
1788306003 19.44° C 65% 0 hPa - - - -
1788305403 20.56° C 61% 0 hPa - - - -
1788304803 20.56° C 62% 0 hPa - - - -
1788304202 20.56° C 60% 0 hPa - - - -
1788303603 20° C 62% 0 hPa - - - -
1788303003 20° C 62% 0 hPa - - - -
1788302403 20° C 67% 0 hPa - - - -
1788301808 20° C 66% 0 hPa - - - -
1788301203 20° C 65% 0 hPa - - - -
1788300603 20° C 68% 0 hPa - - - -
1788300004 20° C 68% 0 hPa - - - -
1788299407 18.89° C 71% 0 hPa - - - -
1788298803 18.89° C 73% 0 hPa - - - -
1788298203 18.89° C 72% 0 hPa - - - -

* Rain since midnight (hover to see other rain measurements)
** Current wind speed in m/s (hover to see current wind gust speed)